createdAt,value
2023-11-12T00:01:59.949Z,77.92
2023-11-12T00:05:27.294Z,78.21
2023-11-12T00:09:09.544Z,78.44
2023-11-12T00:12:21.266Z,78.66
2023-11-12T00:15:57.508Z,78.62
2023-11-12T00:19:43.525Z,78.56
2023-11-12T00:23:10.355Z,78.79
2023-11-12T00:27:04.535Z,78.59
2023-11-12T00:30:34.696Z,78.45
2023-11-12T00:33:57.104Z,79.34
2023-11-12T00:37:26.655Z,79.02
2023-11-12T00:40:40.471Z,79.30
2023-11-12T00:44:26.282Z,79.24
2023-11-12T00:48:14.865Z,80.03
2023-11-12T00:51:54.035Z,79.62
2023-11-12T00:55:12.991Z,78.85
2023-11-12T00:58:21.921Z,78.76
2023-11-12T01:01:44.782Z,78.83
2023-11-12T01:04:58.876Z,78.77
2023-11-12T01:08:12.373Z,78.77
2023-11-12T01:11:54.653Z,78.61
2023-11-12T01:15:44.339Z,78.79
2023-11-12T01:19:18.606Z,78.87
2023-11-12T01:22:50.461Z,78.92
2023-11-12T01:26:33.871Z,78.53
2023-11-12T01:30:12.092Z,78.19
2023-11-12T01:34:00.352Z,78.43
2023-11-12T01:37:49.681Z,78.24
2023-11-12T01:41:27.660Z,78.17
2023-11-12T01:44:58.225Z,78.79
2023-11-12T01:48:29.976Z,78.30
2023-11-12T01:51:48.656Z,78.10
2023-11-12T01:55:17.267Z,78.35
2023-11-12T01:58:52.491Z,78.57
2023-11-12T02:02:34.562Z,78.22
2023-11-12T02:06:17.887Z,78.16
2023-11-12T02:09:32.588Z,78.19
2023-11-12T02:13:10.913Z,78.30
2023-11-12T02:16:51.964Z,78.38
2023-11-12T02:20:37.158Z,78.34
2023-11-12T02:24:17.992Z,78.26
2023-11-12T02:27:45.962Z,78.37
2023-11-12T02:30:49.813Z,78.53
2023-11-12T02:33:53.368Z,78.74
2023-11-12T02:36:58.386Z,78.24
2023-11-12T02:39:59.888Z,77.92
2023-11-12T02:43:19.285Z,78.20
2023-11-12T02:46:42.456Z,77.76
2023-11-12T02:50:18.969Z,77.71
2023-11-12T02:53:58.593Z,77.40
2023-11-12T02:57:17.933Z,76.80
2023-11-12T03:00:41.760Z,77.30
2023-11-12T03:04:23.604Z,77.65
2023-11-12T03:07:08.216Z,77.34
2023-11-12T03:10:02.307Z,76.78
2023-11-12T03:12:39.616Z,76.89
2023-11-12T03:15:12.696Z,76.82
2023-11-12T03:17:47.289Z,76.70
2023-11-12T03:20:19.006Z,76.88
2023-11-12T03:23:16.098Z,76.82
2023-11-12T03:25:52.260Z,76.28
2023-11-12T03:28:31.698Z,74.93
2023-11-12T03:31:25.283Z,74.93
2023-11-12T03:33:54.570Z,75.69
2023-11-12T03:36:36.002Z,73.76
2023-11-12T03:39:25.024Z,74.83
2023-11-12T03:42:51.278Z,74.18
2023-11-12T03:45:46.683Z,71.18
2023-11-12T03:49:12.472Z,70.95
2023-11-12T03:52:41.311Z,70.53
2023-11-12T03:56:40.083Z,68.90
2023-11-12T04:00:24.916Z,70.82
2023-11-12T04:04:16.013Z,69.88
2023-11-12T04:16:20.134Z,70.66
2023-11-12T04:20:11.799Z,71.42
2023-11-12T04:23:33.972Z,70.74
2023-11-12T04:27:35.837Z,70.79
2023-11-12T04:30:32.684Z,71.20
2023-11-12T04:33:55.269Z,70.45
2023-11-12T04:37:12.669Z,70.35
2023-11-12T04:40:52.630Z,69.65
2023-11-12T04:44:40.571Z,69.09
2023-11-12T04:48:13.485Z,70.49
2023-11-12T04:51:52.527Z,70.52
2023-11-12T04:55:33.587Z,71.28
2023-11-12T04:59:16.367Z,72.33
2023-11-12T05:02:55.231Z,72.83
2023-11-12T05:06:50.993Z,72.38
2023-11-12T05:10:45.799Z,72.44
2023-11-12T05:14:08.726Z,72.26
2023-11-12T05:18:01.113Z,71.93
2023-11-12T05:21:33.016Z,71.17
2023-11-12T05:25:19.257Z,70.14
2023-11-12T05:29:24.132Z,68.12
2023-11-12T05:33:18.566Z,70.02
2023-11-12T05:36:56.890Z,69.53
2023-11-12T05:40:37.679Z,67.46
2023-11-12T05:43:35.743Z,66.41
2023-11-12T05:46:24.847Z,65.24
2023-11-12T05:49:11.912Z,64.39
2023-11-12T05:51:44.030Z,65.08
2023-11-12T05:54:14.463Z,65.11
2023-11-12T05:56:51.411Z,65.90
2023-11-12T05:59:33.759Z,65.70
2023-11-12T06:02:02.647Z,63.95
2023-11-12T06:04:41.683Z,62.62
2023-11-12T06:07:19.338Z,62.02
2023-11-12T06:10:12.833Z,62.89
2023-11-12T06:12:54.007Z,62.16
2023-11-12T06:15:29.494Z,62.15
2023-11-12T06:17:58.327Z,61.09
2023-11-12T06:20:33.362Z,61.63
2023-11-12T06:23:14.319Z,61.83
2023-11-12T06:25:43.355Z,61.12
2023-11-12T06:28:31.479Z,60.69
2023-11-12T06:31:11.552Z,61.07
2023-11-12T06:34:02.079Z,61.70
2023-11-12T06:36:52.529Z,61.83
2023-11-12T06:39:32.715Z,60.72
2023-11-12T06:42:26.208Z,60.71
2023-11-12T06:45:41.310Z,60.91
2023-11-12T06:48:31.418Z,60.00
2023-11-12T06:51:05.953Z,60.28
2023-11-12T06:53:34.623Z,60.20
2023-11-12T06:56:06.171Z,59.61
2023-11-12T06:58:38.109Z,59.52
2023-11-12T07:01:24.434Z,59.62
2023-11-12T07:04:08.190Z,60.16
2023-11-12T07:07:01.844Z,59.45
2023-11-12T07:09:53.639Z,57.84
2023-11-12T07:12:25.164Z,57.54
2023-11-12T07:14:53.580Z,57.81
2023-11-12T07:17:29.691Z,57.75
2023-11-12T07:20:03.157Z,57.87
2023-11-12T07:22:48.144Z,57.43
2023-11-12T07:25:26.098Z,57.23
2023-11-12T07:27:55.286Z,56.68
2023-11-12T07:30:39.714Z,55.86
2023-11-12T07:33:14.476Z,56.94
2023-11-12T07:35:59.846Z,56.18
2023-11-12T07:38:34.665Z,55.44
2023-11-12T07:41:08.620Z,56.19
2023-11-12T07:43:48.808Z,56.26
2023-11-12T07:46:20.158Z,56.17
2023-11-12T07:49:19.331Z,55.79
2023-11-12T07:52:18.404Z,56.20
2023-11-12T07:55:03.731Z,56.59
2023-11-12T07:57:49.516Z,55.86
2023-11-12T08:00:50.715Z,56.16
2023-11-12T08:04:05.378Z,55.42
2023-11-12T08:07:13.550Z,54.77
2023-11-12T08:10:05.371Z,55.55
2023-11-12T08:13:17.671Z,55.98
2023-11-12T08:16:39.742Z,54.78
2023-11-12T08:20:06.663Z,55.07
2023-11-12T08:23:12.839Z,53.18
2023-11-12T08:26:40.557Z,53.25
2023-11-12T08:30:00.511Z,51.88
2023-11-12T08:32:46.851Z,52.34
2023-11-12T08:35:49.610Z,51.74
2023-11-12T08:38:32.978Z,51.47
2023-11-12T08:41:23.819Z,51.96
2023-11-12T08:44:42.045Z,52.32
2023-11-12T08:48:15.185Z,50.52
2023-11-12T08:51:02.998Z,50.51
2023-11-12T08:53:37.657Z,50.81
2023-11-12T08:56:39.296Z,51.07
2023-11-12T09:04:12.172Z,50.24
2023-11-12T09:08:04.734Z,50.77
2023-11-12T09:11:31.311Z,50.68
2023-11-12T09:16:05.217Z,50.22
2023-11-12T09:18:33.649Z,50.28
2023-11-12T09:21:52.499Z,50.18
2023-11-12T09:25:55.477Z,50.49
2023-11-12T09:29:06.485Z,50.54
2023-11-12T09:32:48.167Z,50.88
2023-11-12T09:37:03.936Z,50.58
2023-11-12T09:40:19.607Z,50.62
2023-11-12T09:43:14.320Z,50.22
2023-11-12T09:46:26.291Z,50.68
2023-11-12T09:49:41.889Z,50.61
2023-11-12T09:53:47.494Z,50.41
2023-11-12T09:56:59.696Z,50.50
2023-11-12T09:59:47.043Z,50.81
2023-11-12T10:02:50.524Z,50.68
2023-11-12T10:05:36.185Z,51.13
2023-11-12T10:09:03.480Z,51.26
2023-11-12T10:13:19.874Z,51.20
2023-11-12T10:17:33.180Z,51.38
2023-11-12T10:26:16.955Z,51.48
2023-11-12T10:40:09.564Z,50.42
2023-11-12T10:43:52.875Z,49.63
2023-11-12T10:50:58.455Z,49.37
2023-11-12T10:54:25.989Z,48.58
2023-11-12T10:57:01.358Z,48.06
2023-11-12T10:59:45.796Z,48.12
2023-11-12T11:03:07.972Z,47.86
2023-11-12T11:05:46.547Z,47.70
2023-11-12T11:08:26.898Z,47.67
2023-11-12T11:29:13.973Z,46.02
2023-11-12T11:36:32.203Z,47.00
2023-11-12T11:41:29.833Z,46.72
2023-11-12T11:44:39.415Z,46.86
2023-11-12T11:47:40.734Z,46.77
2023-11-12T11:50:48.165Z,46.59
2023-11-12T11:53:34.100Z,46.37
2023-11-12T11:56:20.677Z,46.15
2023-11-12T11:59:13.812Z,45.39
2023-11-12T12:03:00.398Z,44.71
2023-11-12T12:06:40.744Z,44.44
2023-11-12T12:09:51.451Z,44.77
2023-11-12T12:13:30.948Z,44.24
2023-11-12T12:17:05.945Z,44.06
2023-11-12T12:19:41.733Z,43.73
2023-11-12T12:22:31.131Z,43.74
2023-11-12T12:25:20.091Z,44.10
2023-11-12T12:28:32.413Z,44.56
2023-11-12T12:31:35.732Z,44.82
2023-11-12T12:34:58.407Z,45.22
2023-11-12T12:38:58.044Z,45.20
2023-11-12T12:42:16.837Z,44.45
2023-11-12T12:45:15.752Z,43.84
2023-11-12T12:48:54.966Z,43.22
2023-11-12T12:52:41.473Z,41.91
2023-11-12T12:55:41.889Z,41.64
2023-11-12T12:58:23.914Z,41.27
2023-11-12T13:01:39.488Z,41.54
2023-11-12T13:05:16.961Z,41.57
2023-11-12T13:08:33.861Z,41.84
2023-11-12T13:11:56.300Z,40.73
2023-11-12T13:15:40.330Z,39.62
2023-11-12T13:18:38.869Z,37.62
2023-11-12T13:21:51.325Z,36.70
2023-11-12T13:25:06.808Z,34.64
2023-11-12T13:28:18.457Z,35.07
2023-11-12T13:31:28.365Z,36.06
2023-11-12T13:34:28.072Z,38.33
2023-11-12T13:38:01.961Z,40.48
2023-11-12T13:41:25.710Z,41.72
2023-11-12T13:49:33.415Z,43.44
2023-11-12T13:53:22.147Z,44.24
2023-11-12T13:56:43.083Z,44.35
2023-11-12T13:59:45.169Z,44.88
2023-11-12T14:03:15.244Z,45.67
2023-11-12T14:07:05.828Z,46.31
2023-11-12T14:10:46.746Z,46.68
2023-11-12T14:14:34.909Z,47.09
2023-11-12T14:17:52.437Z,47.38
2023-11-12T14:21:10.767Z,47.52
2023-11-12T14:24:18.611Z,47.97
2023-11-12T14:27:08.949Z,47.90
2023-11-12T14:30:57.463Z,48.06
2023-11-12T14:34:16.486Z,48.64
2023-11-12T14:37:22.991Z,48.77
2023-11-12T14:40:47.330Z,48.94
2023-11-12T14:43:45.948Z,49.57
2023-11-12T14:46:36.601Z,49.52
2023-11-12T14:49:30.641Z,49.72
2023-11-12T14:52:29.687Z,49.77
2023-11-12T14:55:57.748Z,50.10
2023-11-12T14:58:51.984Z,50.54
2023-11-12T15:02:03.958Z,51.05
2023-11-12T15:05:29.976Z,51.10
2023-11-12T15:08:20.207Z,51.09
2023-11-12T15:11:35.808Z,51.12
2023-11-12T15:14:33.795Z,51.38
2023-11-12T15:17:14.633Z,51.54
2023-11-12T15:20:00.088Z,51.20
2023-11-12T15:22:47.683Z,51.31
2023-11-12T15:25:47.395Z,51.13
2023-11-12T15:29:02.726Z,51.48
2023-11-12T15:32:34.302Z,51.21
2023-11-12T15:41:16.546Z,51.77
2023-11-12T15:44:52.868Z,51.74
2023-11-12T15:52:17.986Z,51.39
2023-11-12T16:00:22.003Z,52.31
2023-11-12T16:04:10.805Z,52.05
2023-11-12T16:07:49.890Z,51.97
2023-11-12T16:11:04.493Z,51.86
2023-11-12T16:13:56.629Z,52.36
2023-11-12T16:17:50.782Z,52.58
2023-11-12T16:20:54.393Z,52.78
2023-11-12T16:24:13.953Z,52.58
2023-11-12T16:31:28.999Z,52.51
2023-11-12T16:35:05.836Z,52.08
2023-11-12T16:37:49.742Z,52.68
2023-11-12T16:41:11.611Z,52.22
2023-11-12T16:44:09.702Z,52.40
2023-11-12T16:48:17.698Z,51.77
2023-11-12T16:51:55.191Z,51.90
2023-11-12T16:59:07.096Z,51.95
2023-11-12T17:02:15.545Z,51.28
2023-11-12T17:05:20.854Z,51.72
2023-11-12T17:08:34.841Z,51.01
2023-11-12T17:11:32.896Z,51.34
2023-11-12T17:14:18.405Z,51.12
2023-11-12T17:16:56.207Z,50.83
2023-11-12T17:20:38.133Z,49.75
2023-11-12T17:23:59.714Z,50.31
2023-11-12T17:28:28.232Z,49.28
2023-11-12T17:31:20.620Z,49.57
2023-11-12T17:35:16.774Z,49.79
2023-11-12T17:52:24.618Z,49.73
2023-11-12T17:55:31.962Z,49.72
2023-11-12T17:59:14.129Z,50.17
2023-11-12T18:06:53.088Z,50.39
2023-11-12T18:10:06.187Z,50.57
2023-11-12T18:12:50.987Z,50.75
2023-11-12T18:15:38.638Z,50.59
2023-11-12T18:22:12.825Z,50.29
2023-11-12T18:24:57.756Z,49.77
2023-11-12T18:27:55.499Z,49.70
2023-11-12T18:30:50.632Z,49.76
2023-11-12T18:33:52.334Z,49.71
2023-11-12T18:36:35.502Z,50.07
2023-11-12T18:39:37.845Z,50.37
2023-11-12T18:42:26.971Z,50.57
2023-11-12T18:45:04.966Z,50.61
2023-11-12T18:48:22.447Z,50.27
2023-11-12T18:51:28.342Z,50.30
2023-11-12T18:54:33.559Z,50.09
2023-11-12T19:02:13.363Z,50.34
2023-11-12T19:04:51.717Z,50.28
2023-11-12T19:07:50.169Z,50.28
2023-11-12T19:11:18.502Z,50.39
2023-11-12T19:14:42.858Z,50.37
2023-11-12T19:17:54.289Z,50.29
2023-11-12T19:21:07.850Z,50.28
2023-11-12T19:24:01.708Z,50.16
2023-11-12T19:27:26.343Z,50.24
2023-11-12T19:30:31.749Z,50.31
2023-11-12T19:33:08.692Z,50.27
2023-11-12T19:36:37.966Z,50.38
2023-11-12T19:39:55.682Z,50.48
2023-11-12T19:43:13.074Z,50.28
2023-11-12T19:46:10.642Z,50.19
2023-11-12T19:49:25.481Z,50.17
2023-11-12T19:52:30.094Z,50.44
2023-11-12T19:55:42.346Z,50.41
2023-11-12T19:59:17.768Z,50.83
2023-11-12T20:02:40.104Z,51.18
2023-11-12T20:09:02.499Z,51.09
2023-11-12T20:12:33.113Z,51.20
2023-11-12T20:15:41.467Z,51.54
2023-11-12T20:19:12.153Z,51.54
2023-11-12T20:23:05.865Z,51.87
2023-11-12T20:26:32.774Z,52.22
2023-11-12T20:30:15.011Z,52.26
2023-11-12T20:33:44.002Z,52.33
2023-11-12T20:36:39.840Z,52.51
2023-11-12T20:39:34.075Z,52.53
2023-11-12T20:42:29.515Z,52.65
2023-11-12T20:45:18.546Z,52.75
2023-11-12T20:48:18.051Z,52.97
2023-11-12T20:51:11.393Z,53.30
2023-11-12T20:53:56.663Z,53.22
2023-11-12T20:56:38.475Z,53.29
2023-11-12T20:59:22.047Z,53.43
2023-11-12T21:01:51.033Z,53.73
2023-11-12T21:04:29.534Z,53.90
2023-11-12T21:07:14.709Z,54.21
2023-11-12T21:10:41.519Z,54.72
2023-11-12T21:13:20.988Z,54.51
2023-11-12T21:15:58.530Z,54.96
2023-11-12T21:18:44.087Z,54.95
2023-11-12T21:21:42.526Z,55.66
2023-11-12T21:24:14.511Z,55.48
2023-11-12T21:27:14.237Z,55.55
2023-11-12T21:29:58.316Z,54.97
2023-11-12T21:32:48.122Z,55.18
2023-11-12T21:35:26.187Z,55.22
2023-11-12T21:38:04.527Z,55.54
2023-11-12T21:41:00.709Z,55.67
2023-11-12T21:43:29.754Z,55.56
2023-11-12T21:46:08.457Z,55.69
2023-11-12T21:48:39.009Z,55.86
2023-11-12T21:51:37.908Z,56.47
2023-11-12T21:54:35.698Z,56.91
2023-11-12T21:57:16.373Z,57.18
2023-11-12T22:00:12.968Z,57.15
2023-11-12T22:03:02.828Z,57.26
2023-11-12T22:05:47.428Z,57.32
2023-11-12T22:08:16.320Z,57.46
2023-11-12T22:10:51.107Z,57.93
2023-11-12T22:13:27.557Z,57.90
2023-11-12T22:16:00.445Z,58.06
2023-11-12T22:18:31.727Z,58.31
2023-11-12T22:21:35.006Z,58.33
2023-11-12T22:24:19.729Z,58.56
2023-11-12T22:27:25.559Z,58.72
2023-11-12T22:30:08.315Z,58.34
2023-11-12T22:32:48.342Z,58.26
2023-11-12T22:35:20.114Z,58.40
2023-11-12T22:37:58.824Z,58.45
2023-11-12T22:41:08.113Z,58.60
2023-11-12T22:44:21.840Z,58.76
2023-11-12T22:48:01.447Z,58.69
2023-11-12T22:50:48.173Z,58.60
2023-11-12T22:53:31.353Z,58.57
2023-11-12T22:56:42.509Z,58.79
2023-11-12T22:59:49.059Z,58.80
2023-11-12T23:02:40.231Z,59.33
2023-11-12T23:06:50.132Z,59.23
2023-11-12T23:10:21.360Z,59.38
2023-11-12T23:13:43.713Z,59.80
2023-11-12T23:16:47.677Z,59.93
2023-11-12T23:20:00.709Z,59.67
2023-11-12T23:23:39.088Z,59.59
2023-11-12T23:26:53.663Z,59.58
2023-11-12T23:29:50.805Z,59.47
2023-11-12T23:32:34.930Z,59.16
2023-11-12T23:35:39.387Z,58.96
2023-11-12T23:38:36.473Z,59.00
2023-11-12T23:41:08.107Z,59.04
2023-11-12T23:44:47.976Z,58.74
2023-11-12T23:47:36.905Z,58.70
2023-11-12T23:50:50.251Z,58.67
2023-11-12T23:53:49.178Z,58.86
2023-11-12T23:56:55.212Z,58.91
2023-11-12T23:59:29.231Z,59.20
